Conwy, United Kingdom

3:08 AM BST on September 01, 2016 (GMT +0100)
Conwy Marina | | Change Station

Elev 30 ft 53.29 °N, 3.84 °W | Updated 16 seconds ago

Partly Cloudy
Partly Cloudy
59.0 °F
Feels Like 59.0 °F
N
5.8
Wind Variable Wind from WSW
Gusts 5.8 mph

Today
High -- | Low -- °F
--% Chance of Precip.
Yesterday
High -- | Low -- °F
Precip. -- in
Pressure 30.18 in
Visibility 6.2 miles
Clouds Few 4800 ft
Dew Point 52 °F
Humidity 77%
Rainfall 0.00 in
Snow Depth Not available.
6:25 AM 8:03 PM
Waning Crescent, 0% visible
METAR EGOV 010150Z AUTO 26007KT 9999 FEW048/// 13/11 Q1022
Pressure 30.18 in
Visibility 6.2 miles
Clouds Few 4800 ft
Dew Point 52 °F
Humidity 77%
Rainfall 0.00 in
Snow Depth Not available.
6:25 AM 8:03 PM
Waning Crescent, 0% visible
METAR EGOV 010150Z AUTO 26007KT 9999 FEW048/// 13/11 Q1022

10-Day Weather Forecast

×

Almanac

Astronomy

Sep. 01, 2016 Rise Set
Actual Time
Civil Twilight
Nautical Twilight
Astronomical Twilight
Moon
Length of Visible Light
Length of Day
Tomorrow will be .
, % of the Moon is Illuminated

Today's Extremes

Country Highs Country Lows

Community

WunderPhotos

Upload Photos

1,936,268 photos uploaded!

WunderBlog® & News

Nearby

Air Quality

  Air Quality AQ Index Pollutant
Not available.

Snow Depth

Station Depth Elevation

Earthquake Activity

City Distance Mag. Time & Date
Minimum magnitude displayed is 2.5.

Coastal Water Temperatures

Place Temperature

Stations

Nearby Weather Stations

Station Location Temp. Windchill Dew Point Humidity Wind Precip. Elev Updated Type